AFR595 GQNO-LFPG
Flight info
| Callsign | AFR595 |
|---|---|
| Flight time | N/A |
| Altitude | 41000 |
| Route | GUPEL Y601 LAY L660 SOLNA/N0488F430 DCT ROLRO DCT TAKAV DCT ADORO DCT DELOG DCT PEXOD DCT DIDIG UP87 MOKOR UN741 TEMTO DCT ROMGO |
| Aircraft | A359/H-SDE2E3GHIJ3J4J5LM1ORWXY/LB1D1 |
Departure
| Time | 2026-04-26 13:48 |
|---|---|
| Airport | Nouakchott–Oumtounsy International Airport (GQNO) |
Arrival
| Time | N/A |
|---|---|
| Airport | Charles de Gaulle International Airport (LFPG) |
| Time | Latitude | Longitude | Altitude | Speed | Heading |
|---|---|---|---|---|---|
| 2026-04-26 13:21 | 18.30854 | -15.96454 | 13 ft | 0 kts | 59° |
| 2026-04-26 13:38 | 18.30847 | -15.96466 | 14 ft | 4 kts | 55° |
| 2026-04-26 13:38 | 18.30830 | -15.96488 | 17 ft | 4 kts | 43° |
| 2026-04-26 13:38 | 18.30809 | -15.96506 | 16 ft | 4 kts | 26° |
| 2026-04-26 13:38 | 18.30784 | -15.96513 | 17 ft | 4 kts | 353° |
| 2026-04-26 13:39 | 18.30772 | -15.96510 | 17 ft | 3 kts | 328° |
| 2026-04-26 13:41 | 18.30773 | -15.96511 | 17 ft | 1 kts | 328° |
| 2026-04-26 13:41 | 18.30793 | -15.96524 | 13 ft | 6 kts | 328° |
| 2026-04-26 13:41 | 18.30839 | -15.96558 | 14 ft | 9 kts | 312° |
| 2026-04-26 13:42 | 18.30831 | -15.96622 | 15 ft | 11 kts | 225° |
| 2026-04-26 13:42 | 18.30748 | -15.96608 | 13 ft | 16 kts | 151° |
| 2026-04-26 13:42 | 18.30640 | -15.96541 | 15 ft | 20 kts | 150° |
| 2026-04-26 13:42 | 18.30512 | -15.96463 | 20 ft | 23 kts | 150° |
| 2026-04-26 13:43 | 18.30359 | -15.96371 | 22 ft | 27 kts | 149° |
| 2026-04-26 13:43 | 18.30187 | -15.96266 | 25 ft | 30 kts | 150° |
| 2026-04-26 13:43 | 18.30022 | -15.96164 | 22 ft | 19 kts | 149° |
| 2026-04-26 13:43 | 18.29914 | -15.96098 | 20 ft | 21 kts | 150° |
| 2026-04-26 13:44 | 18.29770 | -15.96012 | 13 ft | 26 kts | 149° |
| 2026-04-26 13:44 | 18.29606 | -15.95909 | 13 ft | 29 kts | 149° |
| 2026-04-26 13:44 | 18.29424 | -15.95796 | 15 ft | 31 kts | 150° |
| 2026-04-26 13:44 | 18.29234 | -15.95681 | 19 ft | 33 kts | 150° |
| 2026-04-26 13:45 | 18.29111 | -15.95607 | 19 ft | 33 kts | 150° |
| 2026-04-26 13:45 | 18.29061 | -15.95590 | 21 ft | 0 kts | 187° |
| 2026-04-26 13:45 | 18.29058 | -15.95593 | 20 ft | 1 kts | 208° |
| 2026-04-26 13:46 | 18.29055 | -15.95602 | 21 ft | 3 kts | 250° |
| 2026-04-26 13:46 | 18.29034 | -15.95658 | 19 ft | 13 kts | 244° |
| 2026-04-26 13:46 | 18.29014 | -15.95748 | 15 ft | 8 kts | 299° |
| 2026-04-26 13:46 | 18.29072 | -15.95786 | 14 ft | 14 kts | 331° |
| 2026-04-26 13:47 | 18.29174 | -15.95848 | 14 ft | 20 kts | 329° |
| 2026-04-26 13:47 | 18.29333 | -15.95946 | 13 ft | 43 kts | 330° |
| 2026-04-26 13:47 | 18.29811 | -15.96238 | 16 ft | 113 kts | 330° |
| 2026-04-26 13:47 | 18.30658 | -15.96751 | 125 ft | 159 kts | 330° |
| 2026-04-26 13:48 | 18.31623 | -15.97293 | 925 ft | 154 kts | 333° |
| 2026-04-26 13:48 | 18.32582 | -15.97797 | 1591 ft | 160 kts | 335° |
| 2026-04-26 13:48 | 18.33622 | -15.98329 | 2009 ft | 176 kts | 334° |
| 2026-04-26 13:48 | 18.34781 | -15.98948 | 2392 ft | 198 kts | 333° |
| 2026-04-26 13:49 | 18.36068 | -15.99687 | 2743 ft | 223 kts | 330° |
| 2026-04-26 13:49 | 18.37529 | -16.00429 | 3165 ft | 243 kts | 341° |
| 2026-04-26 13:49 | 18.39210 | -16.00620 | 3957 ft | 245 kts | 1° |
| 2026-04-26 13:49 | 18.40961 | -16.00303 | 4470 ft | 266 kts | 11° |
| 2026-04-26 13:50 | 18.42761 | -15.99685 | 5088 ft | 277 kts | 15° |
| 2026-04-26 13:50 | 18.44595 | -15.98945 | 5766 ft | 286 kts | 17° |
| 2026-04-26 13:50 | 18.46476 | -15.98196 | 6448 ft | 292 kts | 14° |
| 2026-04-26 13:50 | 18.48421 | -15.97467 | 7092 ft | 300 kts | 13° |
| 2026-04-26 13:51 | 18.50412 | -15.96762 | 7839 ft | 303 kts | 12° |
| 2026-04-26 13:51 | 18.52410 | -15.96080 | 8635 ft | 308 kts | 12° |
| 2026-04-26 13:51 | 18.54471 | -15.95391 | 9457 ft | 313 kts | 12° |
| 2026-04-26 13:51 | 18.56563 | -15.94698 | 10205 ft | 321 kts | 12° |
| 2026-04-26 13:52 | 18.58765 | -15.93976 | 10619 ft | 341 kts | 12° |
| 2026-04-26 13:52 | 18.61096 | -15.93210 | 11054 ft | 358 kts | 13° |
| 2026-04-26 13:52 | 18.63510 | -15.92408 | 11715 ft | 366 kts | 13° |
| 2026-04-26 13:52 | 18.65947 | -15.91589 | 12487 ft | 370 kts | 13° |
| 2026-04-26 13:53 | 18.68413 | -15.90757 | 13269 ft | 373 kts | 14° |
| 2026-04-26 13:53 | 18.70903 | -15.89918 | 13983 ft | 377 kts | 14° |
| 2026-04-26 13:53 | 18.73417 | -15.89071 | 14654 ft | 381 kts | 14° |
| 2026-04-26 13:53 | 18.75946 | -15.88222 | 15346 ft | 383 kts | 14° |
| 2026-04-26 13:54 | 18.78499 | -15.87365 | 16067 ft | 385 kts | 14° |
| 2026-04-26 13:54 | 18.81060 | -15.86506 | 16759 ft | 388 kts | 14° |
| 2026-04-26 13:54 | 18.83653 | -15.85637 | 17451 ft | 391 kts | 14° |
| 2026-04-26 13:55 | 18.88847 | -15.83895 | 18720 ft | 398 kts | 13° |
| 2026-04-26 13:55 | 18.90645 | -15.83293 | 19083 ft | 402 kts | 13° |
| 2026-04-26 13:55 | 18.96939 | -15.81183 | 20340 ft | 414 kts | 13° |
| 2026-04-26 13:56 | 18.99699 | -15.80256 | 20887 ft | 418 kts | 13° |
| 2026-04-26 13:56 | 19.02495 | -15.79317 | 21453 ft | 423 kts | 12° |
| 2026-04-26 13:56 | 19.05321 | -15.78367 | 21994 ft | 428 kts | 12° |
| 2026-04-26 13:56 | 19.08134 | -15.77421 | 22547 ft | 433 kts | 12° |
| 2026-04-26 13:57 | 19.11055 | -15.76439 | 23134 ft | 437 kts | 12° |
| 2026-04-26 13:57 | 19.13972 | -15.75457 | 23643 ft | 443 kts | 12° |
| 2026-04-26 13:57 | 19.16882 | -15.74478 | 24132 ft | 446 kts | 11° |
| 2026-04-26 13:57 | 19.19842 | -15.73480 | 24679 ft | 448 kts | 11° |
| 2026-04-26 13:58 | 19.22825 | -15.72473 | 25232 ft | 450 kts | 11° |
| 2026-04-26 13:58 | 19.25815 | -15.71464 | 25764 ft | 453 kts | 10° |
| 2026-04-26 13:58 | 19.28837 | -15.70445 | 26287 ft | 456 kts | 10° |
| 2026-04-26 13:58 | 19.31874 | -15.69420 | 26803 ft | 459 kts | 10° |
| 2026-04-26 13:59 | 19.34929 | -15.68390 | 27309 ft | 462 kts | 9° |
| 2026-04-26 13:59 | 19.37991 | -15.67356 | 27806 ft | 465 kts | 9° |
| 2026-04-26 13:59 | 19.41072 | -15.66316 | 28317 ft | 467 kts | 9° |
| 2026-04-26 14:00 | 19.50443 | -15.63150 | 29644 ft | 479 kts | 9° |
| 2026-04-26 14:00 | 19.53633 | -15.62073 | 30068 ft | 482 kts | 9° |
| 2026-04-26 14:00 | 19.55756 | -15.61355 | 30326 ft | 484 kts | 9° |
| 2026-04-26 14:01 | 19.60067 | -15.59894 | 30826 ft | 488 kts | 9° |
| 2026-04-26 14:01 | 19.63316 | -15.58792 | 31185 ft | 491 kts | 8° |
| 2026-04-26 14:01 | 19.66586 | -15.57683 | 31546 ft | 494 kts | 8° |
| 2026-04-26 14:01 | 19.69875 | -15.56568 | 31895 ft | 497 kts | 8° |
| 2026-04-26 14:02 | 19.73155 | -15.55455 | 32246 ft | 500 kts | 8° |
| 2026-04-26 14:02 | 19.76490 | -15.54323 | 32588 ft | 503 kts | 8° |
| 2026-04-26 14:02 | 19.79833 | -15.53188 | 32968 ft | 506 kts | 8° |
| 2026-04-26 14:02 | 19.83196 | -15.52046 | 33271 ft | 509 kts | 8° |
| 2026-04-26 14:03 | 19.86579 | -15.50897 | 33576 ft | 512 kts | 8° |
| 2026-04-26 14:03 | 19.89985 | -15.49739 | 33863 ft | 514 kts | 8° |
| 2026-04-26 14:03 | 19.93400 | -15.48577 | 34126 ft | 517 kts | 8° |
| 2026-04-26 14:03 | 19.96830 | -15.47410 | 34339 ft | 520 kts | 8° |
| 2026-04-26 14:04 | 20.00296 | -15.46230 | 34578 ft | 522 kts | 8° |
| 2026-04-26 14:04 | 20.03749 | -15.45052 | 34895 ft | 522 kts | 8° |
| 2026-04-26 14:04 | 20.07211 | -15.43870 | 35202 ft | 523 kts | 8° |
| 2026-04-26 14:04 | 20.10677 | -15.42686 | 35491 ft | 524 kts | 8° |
| 2026-04-26 14:05 | 20.14103 | -15.41517 | 35801 ft | 525 kts | 8° |
| 2026-04-26 14:05 | 20.17589 | -15.40328 | 36017 ft | 527 kts | 8° |
| 2026-04-26 14:05 | 20.21083 | -15.39136 | 36295 ft | 527 kts | 8° |
| 2026-04-26 14:05 | 20.24581 | -15.37941 | 36577 ft | 528 kts | 8° |
| 2026-04-26 14:06 | 20.28080 | -15.36745 | 36853 ft | 528 kts | 8° |
| 2026-04-26 14:06 | 20.31585 | -15.35546 | 37125 ft | 529 kts | 8° |
| 2026-04-26 14:06 | 20.35094 | -15.34346 | 37386 ft | 529 kts | 8° |
| 2026-04-26 14:06 | 20.38604 | -15.33145 | 37620 ft | 530 kts | 8° |
| 2026-04-26 14:07 | 20.42121 | -15.31940 | 37887 ft | 530 kts | 8° |
| 2026-04-26 14:07 | 20.45636 | -15.30736 | 38192 ft | 531 kts | 8° |
| 2026-04-26 14:07 | 20.49156 | -15.29530 | 38415 ft | 532 kts | 9° |
| 2026-04-26 14:07 | 20.52640 | -15.28336 | 38627 ft | 532 kts | 9° |
| 2026-04-26 14:08 | 20.56166 | -15.27126 | 38846 ft | 532 kts | 9° |
| 2026-04-26 14:08 | 20.59685 | -15.25916 | 39113 ft | 530 kts | 9° |
| 2026-04-26 14:08 | 20.63194 | -15.24709 | 39374 ft | 528 kts | 9° |
| 2026-04-26 14:08 | 20.66687 | -15.23507 | 39627 ft | 527 kts | 9° |
| 2026-04-26 14:09 | 20.70178 | -15.22307 | 39855 ft | 526 kts | 9° |
| 2026-04-26 14:09 | 20.73652 | -15.21112 | 40064 ft | 524 kts | 9° |
| 2026-04-26 14:09 | 20.77124 | -15.19918 | 40284 ft | 523 kts | 9° |
| 2026-04-26 14:09 | 20.80592 | -15.18725 | 40485 ft | 522 kts | 9° |
| 2026-04-26 14:10 | 20.84045 | -15.17536 | 40676 ft | 521 kts | 9° |
| 2026-04-26 14:10 | 20.87497 | -15.16348 | 40863 ft | 521 kts | 9° |
| 2026-04-26 14:10 | 20.90954 | -15.15158 | 40915 ft | 524 kts | 9° |
| 2026-04-26 14:11 | 21.01392 | -15.11563 | 40908 ft | 527 kts | 9° |
| 2026-04-26 14:11 | 21.08373 | -15.09149 | 40907 ft | 527 kts | 9° |
| 2026-04-26 14:12 | 21.15351 | -15.06734 | 40910 ft | 526 kts | 10° |
| 2026-04-26 14:12 | 21.22316 | -15.04322 | 40908 ft | 525 kts | 10° |
| 2026-04-26 14:13 | 21.32754 | -15.00705 | 40909 ft | 525 kts | 10° |
| 2026-04-26 14:14 | 21.39738 | -14.98452 | 40908 ft | 522 kts | 7° |
| 2026-04-26 14:14 | 21.46750 | -14.96433 | 40928 ft | 521 kts | 7° |
| 2026-04-26 14:15 | 21.53753 | -14.94407 | 40915 ft | 521 kts | 7° |
| 2026-04-26 14:15 | 21.60705 | -14.92352 | 40908 ft | 522 kts | 8° |
| 2026-04-26 14:16 | 21.67738 | -14.90253 | 40908 ft | 524 kts | 8° |
| 2026-04-26 14:16 | 21.74779 | -14.88144 | 40907 ft | 525 kts | 8° |
| 2026-04-26 14:17 | 21.81819 | -14.86034 | 40921 ft | 524 kts | 8° |
| 2026-04-26 14:17 | 21.87661 | -14.84282 | 40914 ft | 524 kts | 8° |
| 2026-04-26 14:18 | 21.94685 | -14.82175 | 40920 ft | 524 kts | 8° |
| 2026-04-26 14:18 | 22.01666 | -14.80080 | 40920 ft | 524 kts | 8° |
| 2026-04-26 14:19 | 22.08684 | -14.77971 | 40917 ft | 524 kts | 8° |
| 2026-04-26 14:19 | 22.15706 | -14.75858 | 40921 ft | 523 kts | 8° |
| 2026-04-26 14:20 | 22.22714 | -14.73748 | 40917 ft | 523 kts | 8° |
| 2026-04-26 14:20 | 22.29726 | -14.71634 | 40919 ft | 523 kts | 8° |
| 2026-04-26 14:21 | 22.36731 | -14.69520 | 40925 ft | 523 kts | 8° |
| 2026-04-26 14:21 | 22.43738 | -14.67403 | 40966 ft | 523 kts | 8° |
| 2026-04-26 14:22 | 22.50755 | -14.65281 | 40929 ft | 522 kts | 8° |
| 2026-04-26 14:22 | 22.57708 | -14.63176 | 40930 ft | 522 kts | 9° |
| 2026-04-26 14:23 | 22.64709 | -14.61055 | 40931 ft | 522 kts | 9° |
| 2026-04-26 14:23 | 22.71707 | -14.58932 | 40936 ft | 522 kts | 9° |
| 2026-04-26 14:24 | 22.78710 | -14.56805 | 40932 ft | 522 kts | 9° |
| 2026-04-26 14:24 | 22.85729 | -14.54672 | 40938 ft | 524 kts | 9° |
| 2026-04-26 14:25 | 22.92748 | -14.52536 | 40937 ft | 524 kts | 9° |
| 2026-04-26 14:25 | 22.99775 | -14.50395 | 40943 ft | 524 kts | 9° |
| 2026-04-26 14:26 | 23.06791 | -14.48254 | 40939 ft | 524 kts | 9° |
| 2026-04-26 14:26 | 23.13814 | -14.46109 | 40948 ft | 523 kts | 9° |
| 2026-04-26 14:27 | 23.20817 | -14.43969 | 40949 ft | 523 kts | 9° |
| 2026-04-26 14:27 | 23.27782 | -14.41838 | 40946 ft | 523 kts | 9° |
| 2026-04-26 14:28 | 23.34788 | -14.39692 | 40950 ft | 523 kts | 9° |
| 2026-04-26 14:28 | 23.41785 | -14.37546 | 40951 ft | 523 kts | 9° |
| 2026-04-26 14:29 | 23.48779 | -14.35399 | 40949 ft | 522 kts | 9° |
| 2026-04-26 14:29 | 23.55767 | -14.33251 | 40948 ft | 521 kts | 9° |
| 2026-04-26 14:30 | 23.62759 | -14.31100 | 40955 ft | 521 kts | 9° |
| 2026-04-26 14:30 | 23.69746 | -14.28948 | 40958 ft | 521 kts | 9° |
| 2026-04-26 14:31 | 23.76693 | -14.26806 | 40963 ft | 521 kts | 9° |
| 2026-04-26 14:31 | 23.83676 | -14.24650 | 40954 ft | 521 kts | 9° |
| 2026-04-26 14:32 | 23.90649 | -14.22495 | 40960 ft | 521 kts | 9° |
| 2026-04-26 14:32 | 23.97625 | -14.20337 | 40959 ft | 522 kts | 9° |
| 2026-04-26 14:33 | 24.04622 | -14.18171 | 40961 ft | 523 kts | 9° |
| 2026-04-26 14:33 | 24.11633 | -14.15996 | 40961 ft | 523 kts | 9° |
| 2026-04-26 14:34 | 24.18647 | -14.13818 | 40964 ft | 523 kts | 9° |
| 2026-04-26 14:34 | 24.25657 | -14.11639 | 40961 ft | 523 kts | 9° |
| 2026-04-26 14:35 | 24.32638 | -14.09466 | 40962 ft | 523 kts | 9° |
| 2026-04-26 14:35 | 24.39652 | -14.07281 | 40964 ft | 523 kts | 10° |
| 2026-04-26 14:36 | 24.46646 | -14.05100 | 40960 ft | 523 kts | 10° |
| 2026-04-26 14:36 | 24.53642 | -14.02915 | 40961 ft | 523 kts | 10° |
| 2026-04-26 14:37 | 24.60603 | -14.00740 | 40962 ft | 523 kts | 10° |
| 2026-04-26 14:37 | 24.67596 | -13.98551 | 40990 ft | 523 kts | 10° |
| 2026-04-26 14:38 | 24.74586 | -13.96361 | 40959 ft | 522 kts | 10° |
| 2026-04-26 14:38 | 24.81567 | -13.94170 | 40961 ft | 522 kts | 10° |
| 2026-04-26 14:39 | 24.88550 | -13.91977 | 40964 ft | 522 kts | 10° |
| 2026-04-26 14:39 | 24.95544 | -13.89778 | 40963 ft | 522 kts | 10° |
| 2026-04-26 14:40 | 25.02530 | -13.87579 | 40966 ft | 521 kts | 11° |
| 2026-04-26 14:40 | 25.09466 | -13.85433 | 40951 ft | 520 kts | 10° |
| 2026-04-26 14:41 | 25.16458 | -13.83313 | 40963 ft | 521 kts | 10° |
| 2026-04-26 14:41 | 25.23477 | -13.81180 | 40963 ft | 522 kts | 10° |
| 2026-04-26 14:42 | 25.30426 | -13.79055 | 40993 ft | 522 kts | 10° |
| 2026-04-26 14:42 | 25.37426 | -13.76908 | 40957 ft | 521 kts | 10° |
| 2026-04-26 14:43 | 25.44414 | -13.74763 | 40958 ft | 521 kts | 10° |
| 2026-04-26 14:43 | 25.51392 | -13.72619 | 40960 ft | 520 kts | 10° |
| 2026-04-26 14:44 | 25.58374 | -13.70471 | 40960 ft | 520 kts | 10° |
| 2026-04-26 14:44 | 25.65351 | -13.68322 | 40963 ft | 520 kts | 11° |
| 2026-04-26 14:45 | 25.72327 | -13.66170 | 40962 ft | 520 kts | 11° |
| 2026-04-26 14:45 | 25.79249 | -13.64033 | 40966 ft | 520 kts | 11° |
| 2026-04-26 14:46 | 25.86218 | -13.61879 | 40963 ft | 520 kts | 11° |
| 2026-04-26 14:46 | 25.93196 | -13.59719 | 40976 ft | 520 kts | 11° |
| 2026-04-26 14:47 | 26.00157 | -13.57561 | 40963 ft | 519 kts | 11° |
| 2026-04-26 14:47 | 26.07128 | -13.55398 | 40963 ft | 519 kts | 11° |
| 2026-04-26 14:48 | 26.14094 | -13.53234 | 40970 ft | 519 kts | 11° |
| 2026-04-26 14:48 | 26.21056 | -13.51069 | 40968 ft | 519 kts | 11° |
| 2026-04-26 14:49 | 26.27971 | -13.48915 | 40963 ft | 519 kts | 11° |
| 2026-04-26 14:49 | 26.34946 | -13.46741 | 40968 ft | 520 kts | 11° |
| 2026-04-26 14:50 | 26.41919 | -13.44563 | 40975 ft | 521 kts | 11° |
| 2026-04-26 14:50 | 26.48902 | -13.42380 | 40972 ft | 521 kts | 11° |
| 2026-04-26 14:51 | 26.55881 | -13.40195 | 40983 ft | 521 kts | 12° |
| 2026-04-26 14:51 | 26.62858 | -13.38009 | 40977 ft | 521 kts | 12° |
| 2026-04-26 14:52 | 26.69791 | -13.35833 | 40980 ft | 521 kts | 12° |